createdAt,value
2022-12-12T00:03:54.173Z,97718.59
2022-12-12T00:09:28.041Z,97711.53
2022-12-12T00:14:53.031Z,97711.63
2022-12-12T00:20:17.023Z,97713.34
2022-12-12T00:25:45.049Z,97721.91
2022-12-12T00:31:09.064Z,97715.72
2022-12-12T00:36:37.047Z,97720.16
2022-12-12T00:42:04.049Z,97721.91
2022-12-12T00:47:29.093Z,97726.22
2022-12-12T00:52:53.095Z,97727.06
2022-12-12T00:58:21.015Z,97733.19
2022-12-12T01:03:47.024Z,97742.75
2022-12-12T01:09:19.051Z,97744.53
2022-12-12T01:14:47.044Z,97743.59
2022-12-12T01:20:12.032Z,97751.41
2022-12-12T01:25:37.034Z,97751.41
2022-12-12T01:31:04.090Z,97750.63
2022-12-12T01:36:31.037Z,97761.06
2022-12-12T01:41:55.047Z,97743.53
2022-12-12T01:47:24.039Z,97745.38
2022-12-12T01:52:54.061Z,97746.41
2022-12-12T01:58:19.048Z,97746.69
2022-12-12T02:03:46.032Z,97739.22
2022-12-12T02:09:22.055Z,97736.81
2022-12-12T02:14:50.047Z,97743.34
2022-12-12T02:21:02.361Z,97739.16
2022-12-12T02:26:59.052Z,97741.19
2022-12-12T02:32:32.054Z,97740.31
2022-12-12T02:38:04.080Z,97742.94
2022-12-12T02:43:35.124Z,97742.25
2022-12-12T02:49:10.036Z,97745.88
2022-12-12T02:54:37.054Z,97751.28
2022-12-12T03:00:05.093Z,97755.91
2022-12-12T03:06:08.078Z,97760.53
2022-12-12T03:11:47.058Z,97756.22
2022-12-12T03:17:17.086Z,97757.97
2022-12-12T03:22:52.063Z,97762.25
2022-12-12T03:28:21.096Z,97770.03
2022-12-12T03:33:52.058Z,97760.22
2022-12-12T03:39:25.061Z,97761.09
2022-12-12T03:44:55.152Z,97754.28
2022-12-12T03:50:25.082Z,97755.44
2022-12-12T03:55:59.056Z,97748.81
2022-12-12T04:01:27.171Z,97751.81
2022-12-12T04:07:06.080Z,97752.03
2022-12-12T04:12:57.086Z,97751.34
2022-12-12T04:18:31.094Z,97760.88
2022-12-12T04:24:03.111Z,97757.31
2022-12-12T04:29:42.169Z,97764.28
2022-12-12T04:35:11.429Z,97759.19
2022-12-12T04:40:39.064Z,97760.03
2022-12-12T04:46:11.128Z,97755.75
2022-12-12T04:51:42.080Z,97768.84
2022-12-12T04:57:11.109Z,97770.69
2022-12-12T05:02:47.224Z,97775.16
2022-12-12T05:08:17.220Z,97772.72
2022-12-12T05:13:45.112Z,97768.44
2022-12-12T05:19:13.076Z,97778.22
2022-12-12T05:24:39.090Z,97785.47
2022-12-12T05:30:04.371Z,97782.91
2022-12-12T05:35:32.129Z,97784.69
2022-12-12T05:40:58.134Z,97788.25
2022-12-12T05:46:23.132Z,97782.44
2022-12-12T05:51:51.114Z,97778.25
2022-12-12T05:57:16.121Z,97783.66
2022-12-12T06:02:41.162Z,97778.34
2022-12-12T06:08:15.203Z,97784.41
2022-12-12T06:13:40.115Z,97786.91
2022-12-12T06:19:07.118Z,97787.59
2022-12-12T06:24:35.102Z,97789.16
2022-12-12T06:29:59.140Z,97792.44
2022-12-12T06:35:24.137Z,97805.25
2022-12-12T06:40:54.122Z,97804.94
2022-12-12T06:46:24.228Z,97808.19
2022-12-12T06:51:51.158Z,97818.53
2022-12-12T06:57:19.145Z,97822.84
2022-12-12T07:02:43.152Z,97816.72
2022-12-12T07:08:09.177Z,97815.22
2022-12-12T07:13:36.143Z,97822.22
2022-12-12T07:19:01.133Z,97831.81
2022-12-12T07:24:26.252Z,97836.41
2022-12-12T07:29:54.121Z,97842.44
2022-12-12T07:35:19.154Z,97849.69
2022-12-12T07:40:44.218Z,97849.50
2022-12-12T07:46:12.204Z,97852.22
2022-12-12T07:51:37.173Z,97855.53
2022-12-12T07:57:02.182Z,97864.03
2022-12-12T08:02:30.144Z,97869.88
2022-12-12T08:07:54.289Z,97875.69
2022-12-12T08:13:20.184Z,97877.97
2022-12-12T08:18:47.183Z,97894.03
2022-12-12T08:24:12.154Z,97895.38
2022-12-12T08:29:37.163Z,97901.13
2022-12-12T08:35:08.161Z,97902.44
2022-12-12T08:40:33.163Z,97906.56
2022-12-12T08:45:58.360Z,97902.69
2022-12-12T08:51:25.168Z,97918.25
2022-12-12T08:56:51.164Z,97930.22
2022-12-12T09:02:15.272Z,97923.03
2022-12-12T09:07:44.153Z,97925.44
2022-12-12T09:13:09.149Z,97929.69
2022-12-12T09:18:47.746Z,97928.63
2022-12-12T09:24:17.270Z,97933.56
2022-12-12T09:29:41.253Z,97928.00
2022-12-12T09:35:06.180Z,97934.72
2022-12-12T09:40:40.152Z,97938.59
2022-12-12T09:46:06.243Z,97942.69
2022-12-12T09:51:31.201Z,97937.09
2022-12-12T09:57:22.178Z,97942.13
2022-12-12T10:03:05.240Z,97925.13
2022-12-12T10:08:35.248Z,97928.19
2022-12-12T10:14:03.190Z,97923.31
2022-12-12T10:19:34.175Z,97929.16
2022-12-12T10:25:05.170Z,97921.91
2022-12-12T10:30:33.206Z,97925.75
2022-12-12T10:36:09.179Z,97924.47
2022-12-12T10:41:43.224Z,97921.00
2022-12-12T10:47:16.211Z,97930.84
2022-12-12T10:52:41.230Z,97925.00
2022-12-12T10:58:16.200Z,97914.66
2022-12-12T11:03:48.209Z,97911.78
2022-12-12T11:09:14.202Z,97908.28
2022-12-12T11:14:43.182Z,97903.69
2022-12-12T11:20:14.268Z,97894.88
2022-12-12T11:25:41.200Z,97893.78
2022-12-12T11:31:08.342Z,97902.09
2022-12-12T11:36:40.199Z,97904.56
2022-12-12T11:42:18.264Z,97907.28
2022-12-12T11:47:50.241Z,97905.56
2022-12-12T11:53:17.247Z,97909.13
2022-12-12T11:58:47.238Z,97907.94
2022-12-12T12:04:38.462Z,97902.69
2022-12-12T12:10:23.941Z,97906.69
2022-12-12T12:15:56.235Z,97899.19
2022-12-12T12:21:41.227Z,97905.03
2022-12-12T12:27:18.217Z,97904.97
2022-12-12T12:32:50.245Z,97896.41
2022-12-12T12:38:33.255Z,97898.34
2022-12-12T12:44:19.280Z,97903.06
2022-12-12T12:49:51.295Z,97906.47
2022-12-12T12:55:16.426Z,97896.56
2022-12-12T13:00:45.283Z,97886.69
2022-12-12T13:06:14.432Z,97884.22
2022-12-12T13:11:45.440Z,97890.81
2022-12-12T13:17:15.290Z,97889.38
2022-12-12T13:22:53.358Z,97882.56
2022-12-12T13:28:22.229Z,97896.78
2022-12-12T13:33:55.665Z,97890.59
2022-12-12T13:39:24.554Z,97890.59
2022-12-12T13:44:51.294Z,97892.44
2022-12-12T13:50:21.268Z,97903.00
2022-12-12T13:55:47.318Z,97899.75
2022-12-12T14:01:45.363Z,97903.69
2022-12-12T14:07:16.470Z,97907.78
2022-12-12T14:12:45.404Z,97907.28
2022-12-12T14:18:12.297Z,97916.63
2022-12-12T14:23:47.300Z,97920.34
2022-12-12T14:29:33.305Z,97926.13
2022-12-12T14:35:05.372Z,97927.69
2022-12-12T14:40:37.793Z,97928.34
2022-12-12T14:46:12.388Z,97931.06
2022-12-12T14:51:40.315Z,97935.31
2022-12-12T14:57:10.282Z,97937.34
2022-12-12T15:02:45.387Z,97941.16
2022-12-12T15:08:14.338Z,97948.47
2022-12-12T15:13:42.579Z,97947.94
2022-12-12T15:19:07.328Z,97948.44
2022-12-12T15:24:35.313Z,97955.97
2022-12-12T15:30:03.302Z,97957.41
2022-12-12T15:35:31.319Z,97961.19
2022-12-12T15:40:59.888Z,97960.81
2022-12-12T15:46:27.316Z,97950.09
2022-12-12T15:51:51.313Z,97961.84
2022-12-12T15:57:23.323Z,97964.94
2022-12-12T16:02:51.309Z,97965.72
2022-12-12T16:08:40.363Z,97959.06
2022-12-12T16:14:06.333Z,97954.09
2022-12-12T16:19:46.424Z,97954.44
2022-12-12T16:25:27.360Z,97962.69
2022-12-12T16:30:53.525Z,97963.22
2022-12-12T16:36:24.354Z,97970.81
2022-12-12T16:41:50.330Z,97965.47
2022-12-12T16:47:14.310Z,97969.22
2022-12-12T16:52:42.341Z,97966.03
2022-12-12T16:58:06.322Z,97974.13
2022-12-12T17:03:32.310Z,97989.59
2022-12-12T17:08:59.301Z,97990.88
2022-12-12T17:14:28.339Z,97992.69
2022-12-12T17:19:52.483Z,97993.31
2022-12-12T17:25:21.366Z,97985.66
2022-12-12T17:30:46.733Z,97992.66
2022-12-12T17:36:14.493Z,98001.44
2022-12-12T17:41:41.341Z,98007.56
2022-12-12T17:47:07.468Z,98011.94
2022-12-12T17:52:32.434Z,98020.88
2022-12-12T17:58:00.358Z,98014.16
2022-12-12T18:03:25.408Z,98018.81
2022-12-12T18:08:51.442Z,98016.56
2022-12-12T18:14:22.345Z,98031.53
2022-12-12T18:19:47.361Z,98030.94
2022-12-12T18:25:12.375Z,98016.69
2022-12-12T18:30:40.388Z,98008.13
2022-12-12T18:36:04.434Z,98015.06
2022-12-12T18:41:38.385Z,98016.78
2022-12-12T18:47:08.585Z,98025.78
2022-12-12T18:52:34.361Z,98032.47
2022-12-12T18:57:59.335Z,98046.59
2022-12-12T19:03:32.937Z,98050.19
2022-12-12T19:08:59.363Z,98048.78
2022-12-12T19:14:29.252Z,98046.34
2022-12-12T19:20:03.409Z,98039.50
2022-12-12T19:25:28.435Z,98037.81
2022-12-12T19:30:53.457Z,98037.69
2022-12-12T19:36:28.409Z,98051.56
2022-12-12T19:41:53.384Z,98054.06
2022-12-12T19:47:17.381Z,98056.63
2022-12-12T19:52:45.390Z,98063.69
2022-12-12T19:58:11.361Z,98068.91
2022-12-12T20:03:36.653Z,98057.72
2022-12-12T20:09:05.420Z,98055.47
2022-12-12T20:14:32.416Z,98058.31
2022-12-12T20:19:56.401Z,98053.19
2022-12-12T20:25:24.409Z,98042.84
2022-12-12T20:30:53.284Z,98062.97
2022-12-12T20:36:21.393Z,98057.97
2022-12-12T20:41:50.388Z,98065.25
2022-12-12T20:47:20.414Z,98068.13
2022-12-12T20:52:46.400Z,98053.50
2022-12-12T20:58:14.417Z,98048.50
2022-12-12T21:03:39.486Z,98050.31
2022-12-12T21:09:04.533Z,98050.56
2022-12-12T21:14:31.396Z,98051.16
2022-12-12T21:20:03.078Z,98051.25
2022-12-12T21:25:31.458Z,98063.66
2022-12-12T21:30:59.452Z,98063.84
2022-12-12T21:36:25.387Z,98066.69
2022-12-12T21:41:50.406Z,98058.94
2022-12-12T21:47:18.418Z,98060.03
2022-12-12T21:53:09.418Z,98057.44
2022-12-12T21:58:34.420Z,98052.28
2022-12-12T22:04:02.464Z,98064.38
2022-12-12T22:09:27.413Z,98068.44
2022-12-12T22:14:51.397Z,98064.69
2022-12-12T22:20:20.416Z,98071.59
2022-12-12T22:25:44.420Z,98074.94
2022-12-12T22:31:13.485Z,98072.16
2022-12-12T22:36:44.805Z,98081.66
2022-12-12T22:42:09.613Z,98076.22
2022-12-12T22:47:36.412Z,98077.06
2022-12-12T22:53:04.414Z,98071.84
2022-12-12T22:58:28.414Z,98071.09
2022-12-12T23:03:54.412Z,98072.09
2022-12-12T23:09:23.448Z,98048.44
2022-12-12T23:14:48.422Z,98045.41
2022-12-12T23:20:14.418Z,98030.91
2022-12-12T23:25:42.421Z,98037.13
2022-12-12T23:31:06.470Z,98039.03
2022-12-12T23:36:32.425Z,98037.31
2022-12-12T23:41:59.434Z,98034.84
2022-12-12T23:47:24.466Z,98038.50
2022-12-12T23:52:48.586Z,98044.78
2022-12-12T23:58:16.437Z,98030.13
